Time;durP1;ratioP1;P1;durP2;ratioP2;P2;SDS_P1;SDS_P2;PMS_P1;PMS_P2;Temp;Humidity;BMP_temperature;BMP_pressure;BME280_temperature;BME280_humidity;BME280_pressure;Samples;Min_cycle;Max_cycle;Signal;HPM_P1;HPM_P2
2021/06/08 00:00:28;;;;;;;;;;;14.50;99.90;;;13.01;91.87;101960.00;3510858;40;102874;-41
2021/06/08 00:02:56;;;;;;;;;;;14.50;99.90;;;13.01;91.60;101962.72;3511044;40;103081;-41
2021/06/08 00:05:24;;;;;;;;;;;14.50;99.90;;;13.00;91.53;101966.53;3511134;40;102373;-42
2021/06/08 00:07:51;;;;;;;;;;;14.40;99.90;;;13.01;91.51;101962.72;3510956;40;102167;-42
2021/06/08 00:10:19;;;;;;;;;;;14.40;99.90;;;12.98;91.27;101946.66;3510774;40;102360;-41
2021/06/08 00:12:47;;;;;;;;;;;14.50;99.90;;;13.01;91.13;101954.50;3511050;40;103265;-41
2021/06/08 00:15:15;;;;;;;;;;;14.50;99.90;;;12.99;91.10;101953.84;3511005;40;103384;-40
2021/06/08 00:17:42;;;;;;;;;;;14.40;99.90;;;12.98;90.97;101949.41;3510802;40;103133;-42
2021/06/08 00:20:11;;;;;;;;;;;14.40;99.90;;;12.99;91.27;101947.53;3511076;40;102365;-42
2021/06/08 00:22:39;;;;;;;;;;;14.40;99.90;;;12.97;91.35;101952.38;3510723;40;102740;-41
2021/06/08 00:25:07;;;;;;;;;;;14.40;99.90;;;12.90;91.29;101944.09;3511022;40;102460;-43
2021/06/08 00:27:34;;;;;;;;;;;14.40;99.90;;;12.93;90.92;101951.91;3510831;40;103194;-44
2021/06/08 00:30:03;;;;;;;;;;;14.40;99.90;;;12.91;90.79;101948.53;3511121;40;102276;-41
2021/06/08 00:32:48;;;;;;;;;;;14.30;99.90;;;12.89;90.66;101948.75;3510105;40;104188;-42
2021/06/08 00:35:15;;;;;;;;;;;14.40;99.90;;;12.87;90.47;101949.97;3511474;40;102411;-41
2021/06/08 00:37:43;;;;;;;;;;;14.30;99.90;;;12.82;90.27;101947.00;3510599;40;103048;-42
2021/06/08 00:40:11;;;;;;;;;;;14.30;99.90;;;12.80;90.07;101950.78;3511039;40;102269;-44
2021/06/08 00:42:39;;;;;;;;;;;14.20;99.90;;;12.77;89.34;101951.19;3510618;40;103155;-41
2021/06/08 00:45:08;;;;;;;;;;;14.20;99.90;;;12.72;89.29;101947.34;3510734;40;102429;-41
2021/06/08 00:47:36;;;;;;;;;;;14.20;99.90;;;12.66;88.90;101947.13;3510653;40;102284;-41
2021/06/08 00:50:05;;;;;;;;;;;14.10;99.90;;;12.58;89.00;101949.16;3511059;40;102224;-41
2021/06/08 00:52:32;;;;;;;;;;;14.10;99.90;;;12.56;88.66;101949.31;3510729;40;104295;-41
2021/06/08 00:54:59;;;;;;;;;;;14.00;99.90;;;12.51;88.38;101954.56;3511062;40;102124;-41
2021/06/08 00:57:27;;;;;;;;;;;14.00;99.90;;;12.46;88.29;101955.13;3510209;40;102295;-41
2021/06/08 00:59:55;;;;;;;;;;;13.90;99.90;;;12.43;88.77;101949.22;3510078;40;102548;-41
2021/06/08 01:02:22;;;;;;;;;;;13.90;99.90;;;12.40;88.88;101949.63;3510815;40;103090;-41
2021/06/08 01:04:49;;;;;;;;;;;13.90;99.90;;;12.33;88.66;101953.16;3510845;40;102587;-41
2021/06/08 01:07:17;;;;;;;;;;;13.80;99.90;;;12.31;89.07;101954.41;3510555;40;102296;-41
2021/06/08 01:09:45;;;;;;;;;;;13.80;99.90;;;12.27;89.71;101947.63;3510980;40;102410;-41
2021/06/08 01:12:12;;;;;;;;;;;13.70;99.90;;;12.21;89.73;101951.97;3510454;40;102604;-43
2021/06/08 01:14:40;;;;;;;;;;;13.70;99.90;;;12.16;89.65;101952.56;3510622;40;102896;-41
2021/06/08 01:17:07;;;;;;;;;;;13.60;99.90;;;12.13;89.57;101952.94;3511008;40;103610;-41
2021/06/08 01:19:37;;;;;;;;;;;13.60;99.90;;;12.09;89.60;101948.91;3510863;40;102787;-42
2021/06/08 01:22:05;;;;;;;;;;;13.60;99.90;;;12.05;89.63;101947.63;3510232;40;102161;-41
2021/06/08 01:24:33;;;;;;;;;;;13.60;99.90;;;12.01;89.27;101958.09;3510640;40;102430;-41
2021/06/08 01:27:03;;;;;;;;;;;13.50;99.90;;;11.95;88.96;101953.38;3510382;40;102419;-41
2021/06/08 01:29:31;;;;;;;;;;;13.40;99.90;;;11.91;89.28;101947.44;3510978;40;102075;-41
2021/06/08 01:32:00;;;;;;;;;;;13.40;99.90;;;11.86;89.42;101944.44;3510676;40;102322;-40
2021/06/08 01:34:28;;;;;;;;;;;13.40;99.90;;;11.82;89.10;101947.78;3510197;40;102355;-43
2021/06/08 01:36:55;;;;;;;;;;;13.30;99.90;;;11.79;88.86;101944.38;3510420;40;103144;-42
2021/06/08 01:39:23;;;;;;;;;;;13.30;99.90;;;11.78;89.19;101950.88;3510485;40;102390;-41
2021/06/08 01:41:51;;;;;;;;;;;13.30;99.90;;;11.74;89.13;101951.47;3510875;40;103070;-41
2021/06/08 01:44:21;;;;;;;;;;;13.30;99.90;;;11.71;88.76;101957.34;3510106;40;102291;-43
2021/06/08 01:46:48;;;;;;;;;;;13.20;99.90;;;11.66;88.80;101949.69;3510600;40;102409;-43
2021/06/08 01:49:16;;;;;;;;;;;13.20;99.90;;;11.62;88.58;101957.41;3510561;40;103096;-41
2021/06/08 01:52:09;;;;;;;;;;;13.10;99.90;;;11.58;88.51;101947.91;3510604;40;103754;-40
2021/06/08 01:55:19;;;;;;;;;;;13.10;99.90;;;11.56;89.00;101952.72;3507598;40;102238;-41
2021/06/08 01:57:48;;;;;;;;;;;13.10;99.90;;;11.52;88.86;101954.16;3500275;40;103209;-40
2021/06/08 02:00:28;;;;;;;;;;;13.00;99.90;;;11.48;88.20;101958.31;3510307;40;102462;-41
2021/06/08 02:03:15;;;;;;;;;;;13.00;99.90;;;11.41;88.09;101958.22;3510429;40;103053;-41
2021/06/08 02:06:04;;;;;;;;;;;12.90;99.90;;;11.37;88.76;101955.00;3510435;40;102365;-40
2021/06/08 02:08:40;;;;;;;;;;;12.90;99.90;;;11.36;88.95;101953.31;3510143;40;103125;-41
2021/06/08 02:11:13;;;;;;;;;;;12.90;99.90;;;11.36;89.51;101955.22;3510625;40;102351;-45
2021/06/08 02:13:46;;;;;;;;;;;12.90;99.90;;;11.32;89.46;101954.75;3509761;40;102454;-41
2021/06/08 02:16:19;;;;;;;;;;;12.80;99.90;;;11.28;88.65;101960.78;3510157;40;103059;-43
2021/06/08 02:18:49;;;;;;;;;;;12.80;99.90;;;11.25;89.06;101956.53;3510100;40;102247;-41
2021/06/08 02:21:26;;;;;;;;;;;12.80;99.90;;;11.22;88.94;101957.75;3510600;40;102356;-40
2021/06/08 02:23:54;;;;;;;;;;;12.70;99.90;;;11.18;88.78;101958.34;3639279;22;102336;-39
2021/06/08 02:26:24;;;;;;;;;;;12.70;99.90;;;11.11;88.99;101952.78;3510374;40;102613;-41
2021/06/08 02:28:55;;;;;;;;;;;12.70;99.90;;;11.08;88.91;101953.16;3510289;40;103239;-41
2021/06/08 02:31:24;;;;;;;;;;;12.60;99.90;;;11.03;88.67;101956.44;3510467;40;102965;-41
2021/06/08 02:33:53;;;;;;;;;;;12.60;99.90;;;11.00;89.23;101956.81;3516516;40;103194;-41
2021/06/08 02:36:22;;;;;;;;;;;12.60;99.90;;;10.96;89.70;101955.50;3520371;40;102380;-41
2021/06/08 02:38:52;;;;;;;;;;;12.50;99.90;;;10.98;89.86;101961.63;3520030;40;104102;-41
2021/06/08 02:41:20;;;;;;;;;;;12.50;99.90;;;10.99;89.92;101971.50;3519959;40;102421;-41
2021/06/08 02:43:50;;;;;;;;;;;12.50;99.90;;;10.99;90.12;101966.06;3520062;40;102393;-41
2021/06/08 02:46:18;;;;;;;;;;;12.50;99.90;;;10.97;90.05;101968.13;3519887;40;102891;-42
2021/06/08 02:48:47;;;;;;;;;;;12.50;99.90;;;10.94;90.07;101971.22;3520186;40;104163;-41
2021/06/08 02:51:16;;;;;;;;;;;12.50;99.90;;;10.92;89.90;101960.50;3520067;40;102693;-41
2021/06/08 02:53:44;;;;;;;;;;;12.50;99.90;;;10.93;90.40;101961.34;3519830;39;102156;-41
2021/06/08 02:56:12;;;;;;;;;;;12.50;99.90;;;10.95;90.62;101959.28;3520609;40;102451;-41
2021/06/08 02:58:43;;;;;;;;;;;12.50;99.90;;;10.94;91.01;101963.88;3521087;40;103046;-41
2021/06/08 03:01:14;;;;;;;;;;;12.50;99.90;;;10.92;90.58;101955.03;3521044;40;103311;-39
2021/06/08 03:03:44;;;;;;;;;;;12.50;99.90;;;10.88;89.99;101955.59;3521214;40;103321;-40
2021/06/08 03:06:16;;;;;;;;;;;12.40;99.90;;;10.86;89.62;101963.09;3521105;40;103022;-39
2021/06/08 03:09:07;;;;;;;;;;;12.40;99.90;;;10.82;89.47;101968.13;3521265;40;103052;-40
2021/06/08 03:11:41;;;;;;;;;;;12.40;99.90;;;10.82;89.78;101970.84;3521160;40;102356;-40
2021/06/08 03:14:13;;;;;;;;;;;12.40;99.90;;;10.77;89.55;101965.09;3521114;40;104067;-39
2021/06/08 03:16:45;;;;;;;;;;;12.30;99.90;;;10.75;89.36;101969.91;3520971;40;102439;-39
2021/06/08 03:19:18;;;;;;;;;;;12.30;99.90;;;10.74;89.19;101962.72;3521140;40;102280;-39
2021/06/08 03:21:49;;;;;;;;;;;12.30;99.90;;;10.74;89.87;101959.97;3521060;40;102044;-39
2021/06/08 03:24:19;;;;;;;;;;;12.30;99.90;;;10.75;89.88;101965.28;3520907;40;102410;-40
2021/06/08 03:26:48;;;;;;;;;;;12.30;99.90;;;10.74;89.81;101965.44;3521266;40;102441;-39
2021/06/08 03:29:17;;;;;;;;;;;12.30;99.90;;;10.71;89.27;101966.69;3520863;40;102711;-41
2021/06/08 03:31:47;;;;;;;;;;;12.30;99.90;;;10.70;89.56;101973.19;3521177;40;102380;-39
2021/06/08 03:34:16;;;;;;;;;;;12.20;99.90;;;10.68;89.24;101969.78;3521037;40;104034;-40
2021/06/08 03:36:46;;;;;;;;;;;12.20;99.90;;;10.65;89.39;101971.00;3521229;40;103014;-39
2021/06/08 03:39:16;;;;;;;;;;;12.20;99.90;;;10.64;89.20;101971.19;3521035;40;102285;-39
2021/06/08 03:41:44;;;;;;;;;;;12.20;99.90;;;10.63;89.46;101967.59;3520892;40;103132;-40
2021/06/08 03:44:13;;;;;;;;;;;12.20;99.90;;;10.63;89.50;101972.22;3520521;40;102124;-41
2021/06/08 03:46:43;;;;;;;;;;;12.20;99.90;;;10.64;89.59;101976.66;3521243;40;102187;-42
2021/06/08 03:49:12;;;;;;;;;;;12.20;99.90;;;10.64;89.57;101969.28;3521109;40;103321;-41
2021/06/08 03:51:41;;;;;;;;;;;12.20;99.90;;;10.66;89.71;101971.84;3521261;40;102233;-41
2021/06/08 03:54:11;;;;;;;;;;;12.20;99.90;;;10.68;89.28;101975.25;3521016;40;102217;-41
2021/06/08 03:56:42;;;;;;;;;;;12.20;99.90;;;10.68;89.54;101975.25;3521031;40;103054;-41
2021/06/08 03:59:10;;;;;;;;;;;12.20;99.90;;;10.70;89.81;101977.78;3520590;40;102443;-41
2021/06/08 04:01:39;;;;;;;;;;;12.20;99.90;;;10.71;89.59;101985.78;3520873;40;102334;-41
2021/06/08 04:04:07;;;;;;;;;;;12.20;99.90;;;10.74;90.20;101979.09;3520592;40;103146;-41
2021/06/08 04:06:35;;;;;;;;;;;12.20;99.90;;;10.78;90.34;101981.28;3520470;40;102724;-41
2021/06/08 04:09:09;;;;;;;;;;;12.30;99.90;;;10.83;90.30;101980.72;3520654;40;102238;-41
2021/06/08 04:11:38;;;;;;;;;;;12.30;99.90;;;10.89;90.63;101979.16;3521050;40;102401;-41
2021/06/08 04:14:05;;;;;;;;;;;12.30;99.90;;;10.92;90.66;101974.13;3520497;40;103218;-41
2021/06/08 04:16:35;;;;;;;;;;;12.30;99.90;;;10.97;90.70;101968.13;3520509;40;102200;-41
2021/06/08 04:19:08;;;;;;;;;;;12.40;99.90;;;11.03;90.51;101974.72;3520705;40;103042;-41
2021/06/08 04:21:36;;;;;;;;;;;12.50;99.90;;;11.08;90.67;101969.53;3520902;40;102339;-41
2021/06/08 04:24:05;;;;;;;;;;;12.50;99.90;;;11.16;90.76;101974.06;3520264;40;103473;-41
2021/06/08 04:26:33;;;;;;;;;;;12.50;99.90;;;11.23;90.68;101970.38;3520852;40;102076;-41
2021/06/08 04:29:02;;;;;;;;;;;12.60;99.90;;;11.30;90.91;101975.09;3520631;40;103232;-41
2021/06/08 04:31:30;;;;;;;;;;;12.70;99.90;;;11.39;91.08;101975.81;3520748;40;102282;-41
2021/06/08 04:33:57;;;;;;;;;;;12.70;99.90;;;11.47;91.27;101978.47;3520519;40;102480;-41
2021/06/08 04:36:25;;;;;;;;;;;12.80;99.90;;;11.60;91.51;101981.38;3520458;40;102288;-41
2021/06/08 04:38:53;;;;;;;;;;;12.90;99.90;;;11.75;91.51;101980.50;3520648;40;103115;-42
2021/06/08 04:41:21;;;;;;;;;;;13.00;99.90;;;11.93;91.89;101980.06;3520915;40;102290;-42
2021/06/08 04:43:49;;;;;;;;;;;13.20;99.90;;;12.11;92.29;101982.41;3520793;40;103072;-41
2021/06/08 04:46:16;;;;;;;;;;;13.40;99.90;;;12.32;92.52;101983.44;3511561;40;102305;-40
2021/06/08 04:48:44;;;;;;;;;;;13.50;99.90;;;12.57;92.72;101981.13;3520956;40;102246;-40
2021/06/08 04:51:12;;;;;;;;;;;13.80;99.90;;;12.91;93.07;101979.53;3520866;40;102400;-39
2021/06/08 04:53:41;;;;;;;;;;;14.00;99.90;;;13.19;91.98;101975.03;3520618;40;104161;-39
2021/06/08 04:56:08;;;;;;;;;;;14.30;99.90;;;13.47;90.51;101977.75;3521158;40;102716;-39
2021/06/08 04:58:36;;;;;;;;;;;14.50;99.90;;;13.80;86.67;101985.25;3520430;40;102259;-39
2021/06/08 05:01:16;;;;;;;;;;;14.80;99.90;;;14.10;85.16;101976.69;3520706;40;102197;-39
2021/06/08 05:03:51;;;;;;;;;;;15.10;99.90;;;14.42;85.17;101980.72;3520311;40;103617;-39
2021/06/08 05:06:26;;;;;;;;;;;15.40;99.90;;;14.71;84.00;101979.50;3520540;40;102531;-41
2021/06/08 05:09:00;;;;;;;;;;;15.70;99.90;;;14.95;82.70;101979.91;3521340;40;103316;-41
2021/06/08 05:11:36;;;;;;;;;;;16.00;99.90;;;15.25;82.60;101979.41;3520869;40;102777;-42
2021/06/08 05:14:07;;;;;;;;;;;16.20;99.90;;;15.48;78.71;101980.84;3521062;40;103085;-41
2021/06/08 05:16:39;;;;;;;;;;;16.40;99.90;;;15.64;78.23;101983.06;3520576;40;102894;-41
2021/06/08 05:19:08;;;;;;;;;;;16.60;99.90;;;15.72;78.11;101978.41;3521064;40;102310;-41
2021/06/08 05:21:36;;;;;;;;;;;16.70;99.90;;;15.71;78.63;101982.22;3520861;40;102411;-41
2021/06/08 05:24:06;;;;;;;;;;;16.70;99.90;;;15.62;77.38;101981.63;3520435;40;103156;-42
2021/06/08 05:26:33;;;;;;;;;;;16.80;99.90;;;15.64;78.27;101988.56;3520968;40;102263;-42
2021/06/08 05:29:01;;;;;;;;;;;16.80;99.90;;;15.63;77.78;101986.88;3519991;40;102365;-42
2021/06/08 05:31:30;;;;;;;;;;;16.80;99.90;;;15.60;77.01;101987.31;3520843;39;102365;-42
2021/06/08 05:33:58;;;;;;;;;;;16.80;99.90;;;15.61;76.79;101990.94;3520199;40;102487;-41
2021/06/08 05:36:34;;;;;;;;;;;16.80;99.90;;;15.57;76.79;101985.00;3520505;40;102229;-42
2021/06/08 05:39:03;;;;;;;;;;;16.80;99.90;;;15.57;78.09;101990.50;3511220;40;103308;-42
2021/06/08 05:41:31;;;;;;;;;;;16.80;99.90;;;15.56;76.82;101994.31;3520575;40;102320;-43
2021/06/08 05:43:59;;;;;;;;;;;16.80;99.90;;;15.50;75.63;101984.22;3520638;40;103370;-42
2021/06/08 05:46:33;;;;;;;;;;;16.70;99.90;;;15.47;76.26;101990.16;3520747;40;102439;-41
2021/06/08 05:49:01;;;;;;;;;;;16.70;99.90;;;15.47;77.67;101990.97;3520456;40;103690;-41
2021/06/08 05:51:31;;;;;;;;;;;16.70;99.90;;;15.49;78.39;101994.34;3520884;40;102403;-42
2021/06/08 05:54:00;;;;;;;;;;;16.70;99.90;;;15.53;77.16;101997.50;3519890;40;103260;-42
2021/06/08 05:56:32;;;;;;;;;;;16.80;99.90;;;15.56;75.93;101993.50;3520919;40;102508;-41
2021/06/08 05:59:00;;;;;;;;;;;16.80;99.90;;;15.54;75.79;101985.47;3520519;40;104032;-40
2021/06/08 06:01:29;;;;;;;;;;;16.80;99.90;;;15.63;77.84;101992.38;3520438;40;102159;-40
2021/06/08 06:03:57;;;;;;;;;;;16.80;99.90;;;15.57;75.84;101996.03;3520205;40;103172;-39
2021/06/08 06:06:25;;;;;;;;;;;16.80;99.90;;;15.59;76.39;101987.56;3520593;40;102534;-40
2021/06/08 06:08:54;;;;;;;;;;;16.80;99.90;;;15.78;77.16;101996.78;3520488;40;103499;-40
2021/06/08 06:11:22;;;;;;;;;;;16.90;99.90;;;16.09;75.18;101997.91;3520331;40;103014;-39
2021/06/08 06:13:59;;;;;;;;;;;17.20;99.90;;;16.38;73.12;101998.34;3520092;40;104011;-40
2021/06/08 06:16:30;;;;;;;;;;;17.40;99.90;;;16.61;72.92;102002.41;3520141;40;102389;-41
2021/06/08 06:19:00;;;;;;;;;;;17.60;99.90;;;16.83;72.42;102002.84;3520683;40;102372;-39
2021/06/08 06:21:28;;;;;;;;;;;17.80;99.90;;;17.14;74.01;102000.28;3520837;40;102550;-40
2021/06/08 06:23:56;;;;;;;;;;;18.00;99.90;;;17.31;70.74;102006.88;3519996;40;103088;-40
2021/06/08 06:26:28;;;;;;;;;;;18.20;99.90;;;17.57;71.34;102012.31;3520281;39;102568;-46
2021/06/08 06:28:55;;;;;;;;;;;18.50;99.90;;;17.78;70.72;101994.44;3519771;40;102270;-39
2021/06/08 06:31:23;;;;;;;;;;;18.60;99.90;;;18.01;70.30;102002.00;3519463;40;102248;-40
2021/06/08 06:33:55;;;;;;;;;;;18.90;99.90;;;18.18;69.19;101995.81;3519903;40;103037;-40
2021/06/08 06:36:25;;;;;;;;;;;19.10;99.90;;;18.19;69.77;102003.88;3520465;40;102344;-40
2021/06/08 06:38:58;;;;;;;;;;;19.20;99.90;;;18.20;68.39;102005.53;3519810;40;102176;-40
2021/06/08 06:41:26;;;;;;;;;;;19.30;99.90;;;18.44;67.36;102008.38;3520337;39;102210;-40
2021/06/08 06:43:55;;;;;;;;;;;19.40;99.90;;;18.63;67.68;102002.75;3520293;40;103127;-40
2021/06/08 06:46:23;;;;;;;;;;;19.50;99.90;;;18.76;66.82;102005.28;3519816;40;103048;-40
2021/06/08 06:48:52;;;;;;;;;;;19.70;99.90;;;18.92;66.99;102002.91;3519932;40;102068;-40
2021/06/08 06:51:20;;;;;;;;;;;19.80;99.90;;;18.96;65.45;102002.19;3520378;40;102124;-40
2021/06/08 06:53:49;;;;;;;;;;;19.90;99.90;;;18.99;64.43;102000.88;3519603;40;103504;-40
2021/06/08 06:56:18;;;;;;;;;;;20.00;99.90;;;19.11;67.30;102010.03;3519956;40;102249;-40
2021/06/08 06:58:46;;;;;;;;;;;20.10;99.90;;;19.05;65.66;102005.44;3519998;40;102685;-40
2021/06/08 07:01:13;;;;;;;;;;;20.10;99.90;;;18.81;65.68;102010.09;3520255;40;102929;-40
2021/06/08 07:03:42;;;;;;;;;;;19.90;99.90;;;18.64;66.75;102009.97;3520170;39;102407;-40
2021/06/08 07:06:10;;;;;;;;;;;19.70;99.90;;;18.55;69.56;102010.31;3519709;40;102223;-40
2021/06/08 07:08:39;;;;;;;;;;;19.70;99.90;;;18.52;69.30;102012.72;3519805;40;103339;-40
2021/06/08 07:11:07;;;;;;;;;;;19.70;99.90;;;18.52;68.73;102016.31;3519895;40;102739;-40
2021/06/08 07:13:35;;;;;;;;;;;19.70;99.90;;;18.51;68.75;102017.38;3519637;40;104208;-45
2021/06/08 07:16:03;;;;;;;;;;;19.60;99.90;;;18.47;68.89;102012.59;3520249;39;102248;-40
2021/06/08 07:18:31;;;;;;;;;;;19.50;99.90;;;18.50;70.40;102012.13;3519760;40;104940;-40
2021/06/08 07:21:01;;;;;;;;;;;19.50;99.90;;;18.53;70.21;102012.47;3520183;40;103031;-40
2021/06/08 07:23:29;;;;;;;;;;;19.60;99.90;;;18.51;71.20;102011.03;3519380;40;102284;-40
2021/06/08 07:25:56;;;;;;;;;;;19.50;99.90;;;18.42;71.50;102010.53;3519361;40;102139;-40
2021/06/08 07:28:26;;;;;;;;;;;19.50;99.90;;;18.48;71.40;102017.88;3519592;40;103109;-41
2021/06/08 07:30:54;;;;;;;;;;;19.50;99.90;;;18.59;72.17;102010.69;3519498;40;102374;-40
2021/06/08 07:33:31;;;;;;;;;;;19.60;99.90;;;18.71;70.66;102013.47;3519541;40;102214;-40
2021/06/08 07:36:09;;;;;;;;;;;19.70;99.90;;;18.86;71.03;102017.69;3510392;40;102236;-40
2021/06/08 07:38:47;;;;;;;;;;;19.80;99.90;;;18.96;71.22;102013.25;3519868;40;103052;-41
2021/06/08 07:41:25;;;;;;;;;;;19.90;99.90;;;19.06;70.89;102015.41;3519311;40;102288;-40
2021/06/08 07:43:59;;;;;;;;;;;19.90;99.90;;;19.25;70.60;102009.75;3521058;40;102255;-40
2021/06/08 07:46:29;;;;;;;;;;;20.10;99.90;;;19.30;68.63;102015.41;3521181;40;102223;-40
2021/06/08 07:49:00;;;;;;;;;;;20.20;99.90;;;19.32;67.68;102018.75;3520838;40;102266;-40
2021/06/08 07:51:29;;;;;;;;;;;20.20;99.90;;;19.38;68.81;102020.59;3521108;40;102716;-40
2021/06/08 07:53:59;;;;;;;;;;;20.30;99.90;;;19.38;64.19;102022.50;3520947;40;103424;-39
2021/06/08 07:56:29;;;;;;;;;;;20.40;99.90;;;19.36;64.76;102028.28;3520593;40;102739;-40
2021/06/08 07:58:56;;;;;;;;;;;20.40;99.90;;;19.38;64.68;102022.50;3520850;40;103094;-40
2021/06/08 08:01:26;;;;;;;;;;;20.30;99.90;;;19.58;66.28;102024.03;3521140;40;102333;-40
2021/06/08 08:03:54;;;;;;;;;;;20.40;99.90;;;19.88;66.42;102022.97;3521036;40;102213;-40
2021/06/08 08:06:24;;;;;;;;;;;20.60;99.90;;;20.00;66.32;102026.56;3520870;40;102313;-40
2021/06/08 08:08:56;;;;;;;;;;;20.70;99.90;;;20.32;64.74;102028.84;3521633;40;102637;-40
2021/06/08 08:11:24;;;;;;;;;;;20.90;99.90;;;20.57;63.29;102021.22;3520850;40;102206;-41
2021/06/08 08:13:56;;;;;;;;;;;21.10;99.90;;;20.72;64.40;102020.63;3521053;40;104054;-42
2021/06/08 08:16:25;;;;;;;;;;;21.30;99.90;;;20.86;61.90;102026.69;3520885;40;102381;-41
2021/06/08 08:18:53;;;;;;;;;;;21.50;99.90;;;21.07;61.95;102023.16;3520205;40;102262;-40
2021/06/08 08:21:20;;;;;;;;;;;21.70;99.90;;;21.29;61.22;102025.13;3521060;40;102977;-40
2021/06/08 08:23:48;;;;;;;;;;;21.90;99.90;;;21.47;59.60;102023.13;3651002;22;104023;-42
2021/06/08 08:26:16;;;;;;;;;;;22.00;99.90;;;21.77;60.13;102019.09;3520913;40;102448;-43
2021/06/08 08:28:44;;;;;;;;;;;22.30;99.90;;;21.97;57.36;102013.75;3520949;40;103266;-41
2021/06/08 08:31:15;;;;;;;;;;;22.50;99.90;;;21.97;55.93;102027.66;3521206;40;103670;-43
2021/06/08 08:33:44;;;;;;;;;;;22.60;99.90;;;22.01;57.28;102021.56;3520774;40;102155;-42
2021/06/08 08:36:12;;;;;;;;;;;22.70;99.90;;;21.84;53.75;102019.75;3521195;40;102925;-41
2021/06/08 08:38:40;;;;;;;;;;;22.70;99.90;;;21.47;51.46;102014.78;3520796;40;103204;-41
2021/06/08 08:41:09;;;;;;;;;;;22.50;99.90;;;21.24;53.47;102016.72;3520831;40;102443;-41
2021/06/08 08:43:45;;;;;;;;;;;22.40;99.90;;;21.12;53.56;102019.63;3520876;40;102514;-41
2021/06/08 08:46:14;;;;;;;;;;;22.30;99.90;;;21.13;54.97;102005.47;3521407;40;102322;-45
2021/06/08 08:48:43;;;;;;;;;;;22.20;99.90;;;21.17;62.48;102010.50;3520844;40;103234;-41
2021/06/08 08:51:16;;;;;;;;;;;22.10;99.90;;;21.18;58.79;102007.50;3521015;40;102284;-41
2021/06/08 08:53:45;;;;;;;;;;;22.10;99.90;;;21.12;58.43;102011.28;3520123;40;102302;-43
2021/06/08 08:56:27;;;;;;;;;;;22.00;99.90;;;21.11;57.58;102004.88;3521374;40;102187;-42
2021/06/08 08:58:56;;;;;;;;;;;22.00;99.90;;;21.14;58.84;102009.09;3512487;40;104732;-41
2021/06/08 09:01:23;;;;;;;;;;;22.10;99.90;;;21.18;59.95;102003.88;3520969;40;102476;-45
2021/06/08 09:03:51;;;;;;;;;;;22.10;99.90;;;21.28;59.69;102004.03;3520706;40;102637;-41
2021/06/08 09:06:20;;;;;;;;;;;22.10;99.90;;;21.27;56.68;102005.13;3520744;40;102263;-41
2021/06/08 09:08:48;;;;;;;;;;;22.20;99.90;;;21.22;56.48;102005.06;3520540;40;102332;-44
2021/06/08 09:11:18;;;;;;;;;;;22.20;99.90;;;21.22;54.51;102005.06;3521268;40;102251;-41
2021/06/08 09:13:46;;;;;;;;;;;22.20;99.90;;;21.17;52.02;101996.63;3520344;40;102570;-46
2021/06/08 09:16:15;;;;;;;;;;;22.20;99.90;;;21.25;52.85;101993.44;3520628;40;102787;-46
2021/06/08 09:18:43;;;;;;;;;;;22.20;99.90;;;21.34;54.70;102000.22;3520680;40;103405;-43
2021/06/08 09:21:14;;;;;;;;;;;22.20;99.90;;;21.48;54.14;101997.88;3520971;40;103030;-46
2021/06/08 09:23:42;;;;;;;;;;;22.30;99.90;;;21.56;49.84;101996.59;3520746;40;102268;-41
2021/06/08 09:26:10;;;;;;;;;;;22.40;99.90;;;21.76;54.84;101998.00;3520470;40;103197;-41
2021/06/08 09:28:38;;;;;;;;;;;22.50;99.90;;;21.95;53.56;101993.75;3520751;40;104074;-41
2021/06/08 09:31:20;;;;;;;;;;;22.60;99.90;;;22.23;53.48;101977.91;3521053;40;102135;-41
2021/06/08 09:33:57;;;;;;;;;;;22.70;99.90;;;22.84;53.68;101976.75;3520469;40;102688;-42
2021/06/08 09:36:30;;;;;;;;;;;23.20;99.90;;;23.19;49.18;101981.97;3521009;40;102391;-41
2021/06/08 09:39:00;;;;;;;;;;;23.60;99.90;;;23.24;48.51;101980.03;3520226;40;102209;-41
2021/06/08 09:41:41;;;;;;;;;;;23.90;99.90;;;23.32;47.63;101981.47;3520481;40;102176;-44
2021/06/08 09:44:16;;;;;;;;;;;24.00;99.90;;;23.13;49.33;101972.72;3520563;40;102259;-41
2021/06/08 09:46:55;;;;;;;;;;;24.00;99.90;;;22.96;49.38;101979.34;3520857;40;102417;-44
2021/06/08 09:49:31;;;;;;;;;;;23.90;99.90;;;22.85;51.13;101991.50;3520687;40;103152;-42
2021/06/08 09:52:02;;;;;;;;;;;23.80;99.90;;;22.45;51.84;101984.50;3520671;40;102381;-40
2021/06/08 09:54:37;;;;;;;;;;;23.60;99.90;;;22.31;53.06;101987.69;3520486;40;103165;-41
2021/06/08 09:57:27;;;;;;;;;;;23.40;99.90;;;22.18;51.68;101979.81;3520720;40;102944;-43
2021/06/08 10:00:08;;;;;;;;;;;23.30;99.90;;;22.04;51.26;101979.41;3520596;40;102443;-42
2021/06/08 10:02:58;;;;;;;;;;;23.20;99.90;;;22.06;52.85;101974.41;3520313;40;102686;-40
2021/06/08 10:05:29;;;;;;;;;;;23.10;99.90;;;22.06;51.39;101975.25;3520160;40;102233;-41
2021/06/08 10:08:07;;;;;;;;;;;23.00;99.90;;;22.17;52.35;101976.19;3520703;40;102790;-41
2021/06/08 10:10:38;;;;;;;;;;;23.00;99.90;;;22.27;50.85;101970.69;3520124;40;103420;-43
2021/06/08 10:13:18;;;;;;;;;;;23.00;99.90;;;22.46;56.07;101963.94;3520394;40;102161;-42
2021/06/08 10:15:59;;;;;;;;;;;23.20;99.90;;;22.74;55.79;101970.28;3520382;40;103143;-44
2021/06/08 10:18:42;;;;;;;;;;;23.40;99.90;;;23.05;50.34;101962.13;3520372;40;102131;-42
2021/06/08 10:21:10;;;;;;;;;;;23.60;99.90;;;23.29;47.40;101964.50;3520610;40;103196;-44
2021/06/08 10:23:39;;;;;;;;;;;23.90;99.90;;;23.33;46.90;101960.88;3520359;40;102362;-41
2021/06/08 10:26:11;;;;;;;;;;;23.90;99.30;;;23.21;48.94;101963.03;3520306;40;103247;-42
2021/06/08 10:28:40;;;;;;;;;;;23.80;99.90;;;23.11;51.10;101967.44;3520717;40;102476;-41
2021/06/08 10:31:08;;;;;;;;;;;23.90;99.90;;;23.17;49.34;101971.06;3520116;40;102314;-42
2021/06/08 10:33:56;;;;;;;;;;;24.00;99.90;;;23.29;49.46;101953.38;3519553;40;102249;-42
2021/06/08 10:36:44;;;;;;;;;;;24.10;99.90;;;23.39;46.11;101962.59;3519862;40;103157;-40
2021/06/08 10:39:14;;;;;;;;;;;24.10;98.60;;;23.69;53.74;101962.97;3520434;40;102598;-41
2021/06/08 10:41:45;;;;;;;;;;;24.20;99.90;;;23.85;48.00;101961.91;3520728;40;104330;-41
2021/06/08 10:44:26;;;;;;;;;;;24.40;99.90;;;23.85;47.85;101958.25;3520518;40;102217;-45
2021/06/08 10:46:57;;;;;;;;;;;24.50;99.90;;;23.69;47.33;101961.03;3520538;40;102296;-41
2021/06/08 10:49:39;;;;;;;;;;;24.70;99.00;;;23.77;46.85;101964.38;3520340;40;102366;-41
2021/06/08 10:52:16;;;;;;;;;;;24.60;98.80;;;24.04;50.22;101955.84;3520139;40;103264;-44
2021/06/08 10:54:49;;;;;;;;;;;24.70;99.90;;;23.98;46.35;101960.53;3520594;40;102629;-42
2021/06/08 10:57:18;;;;;;;;;;;24.80;98.50;;;24.03;51.47;101954.16;3520436;40;102447;-41
2021/06/08 10:59:50;;;;;;;;;;;24.90;99.90;;;24.25;45.28;101961.41;3520264;40;102387;-44
2021/06/08 11:02:43;;;;;;;;;;;24.90;97.20;;;24.25;46.58;101955.81;3519890;40;103167;-43
2021/06/08 11:05:12;;;;;;;;;;;;;;;24.62;48.59;101959.44;3520569;40;102816;-41
2021/06/08 11:07:43;;;;;;;;;;;;;;;24.65;48.35;101956.94;3520267;40;104236;-42
2021/06/08 11:10:29;;;;;;;;;;;;;;;24.47;47.50;101958.34;3520032;40;102289;-41
2021/06/08 11:13:09;;;;;;;;;;;;;;;24.40;47.57;101953.06;3520479;40;102266;-42
2021/06/08 11:15:38;;;;;;;;;;;;;;;24.50;49.80;101955.00;3520270;40;102457;-41
2021/06/08 11:18:18;;;;;;;;;;;;;;;24.45;47.19;101963.38;3521593;40;102293;-41
2021/06/08 11:21:06;;;;;;;;;;;;;;;24.53;45.27;101960.00;3521707;40;102340;-41